sensor_id;sensor_type;location;lat;lon;timestamp;temperature;humidity
8664;DHT22;4369;47.842;13.096;2023-03-24T00:00:12;11.60;99.90
8664;DHT22;4369;47.842;13.096;2023-03-24T00:02:40;11.60;99.90
8664;DHT22;4369;47.842;13.096;2023-03-24T00:05:08;11.60;99.90
8664;DHT22;4369;47.842;13.096;2023-03-24T00:07:36;11.50;99.90
8664;DHT22;4369;47.842;13.096;2023-03-24T00:10:08;11.50;99.90
8664;DHT22;4369;47.842;13.096;2023-03-24T00:12:36;11.40;99.90
8664;DHT22;4369;47.842;13.096;2023-03-24T00:15:05;11.30;99.90
8664;DHT22;4369;47.842;13.096;2023-03-24T00:17:32;11.30;99.90
8664;DHT22;4369;47.842;13.096;2023-03-24T00:20:01;11.30;99.90
8664;DHT22;4369;47.842;13.096;2023-03-24T00:22:32;11.30;99.90
8664;DHT22;4369;47.842;13.096;2023-03-24T00:24:59;11.30;99.90
8664;DHT22;4369;47.842;13.096;2023-03-24T00:27:30;11.30;99.90
8664;DHT22;4369;47.842;13.096;2023-03-24T00:30:03;11.30;99.90
8664;DHT22;4369;47.842;13.096;2023-03-24T00:32:30;11.30;99.90
8664;DHT22;4369;47.842;13.096;2023-03-24T00:34:57;11.30;99.90
8664;DHT22;4369;47.842;13.096;2023-03-24T00:37:25;11.30;99.90
8664;DHT22;4369;47.842;13.096;2023-03-24T00:39:52;11.30;99.90
8664;DHT22;4369;47.842;13.096;2023-03-24T00:42:18;11.30;99.90
8664;DHT22;4369;47.842;13.096;2023-03-24T00:44:48;11.20;99.90
8664;DHT22;4369;47.842;13.096;2023-03-24T00:47:15;11.20;99.90
8664;DHT22;4369;47.842;13.096;2023-03-24T00:49:50;11.10;99.90
8664;DHT22;4369;47.842;13.096;2023-03-24T00:52:20;11.20;99.90
8664;DHT22;4369;47.842;13.096;2023-03-24T00:54:49;11.20;99.90
8664;DHT22;4369;47.842;13.096;2023-03-24T00:57:17;11.20;99.90
8664;DHT22;4369;47.842;13.096;2023-03-24T00:59:48;11.20;99.90
8664;DHT22;4369;47.842;13.096;2023-03-24T01:02:15;11.20;99.90
8664;DHT22;4369;47.842;13.096;2023-03-24T01:04:43;11.20;99.90
8664;DHT22;4369;47.842;13.096;2023-03-24T01:07:12;11.20;99.90
8664;DHT22;4369;47.842;13.096;2023-03-24T01:09:43;11.20;99.90
8664;DHT22;4369;47.842;13.096;2023-03-24T01:12:10;11.20;99.90
8664;DHT22;4369;47.842;13.096;2023-03-24T01:14:37;11.20;99.90
8664;DHT22;4369;47.842;13.096;2023-03-24T01:17:06;11.30;99.90
8664;DHT22;4369;47.842;13.096;2023-03-24T01:19:33;11.30;99.90
8664;DHT22;4369;47.842;13.096;2023-03-24T01:22:00;11.30;99.90
8664;DHT22;4369;47.842;13.096;2023-03-24T01:24:27;11.20;99.90
8664;DHT22;4369;47.842;13.096;2023-03-24T01:26:55;11.20;99.90
8664;DHT22;4369;47.842;13.096;2023-03-24T01:29:22;11.10;99.90
8664;DHT22;4369;47.842;13.096;2023-03-24T01:31:49;11.10;99.90
8664;DHT22;4369;47.842;13.096;2023-03-24T01:34:17;11.10;99.90
8664;DHT22;4369;47.842;13.096;2023-03-24T01:36:44;11.00;99.90
8664;DHT22;4369;47.842;13.096;2023-03-24T01:39:11;10.90;99.90
8664;DHT22;4369;47.842;13.096;2023-03-24T01:41:39;10.90;99.90
8664;DHT22;4369;47.842;13.096;2023-03-24T01:44:36;10.90;99.90
8664;DHT22;4369;47.842;13.096;2023-03-24T01:47:06;10.90;99.90
8664;DHT22;4369;47.842;13.096;2023-03-24T01:49:36;10.90;99.90
8664;DHT22;4369;47.842;13.096;2023-03-24T01:52:07;11.00;99.90
8664;DHT22;4369;47.842;13.096;2023-03-24T01:54:37;11.00;99.90
8664;DHT22;4369;47.842;13.096;2023-03-24T01:57:09;11.00;99.90
8664;DHT22;4369;47.842;13.096;2023-03-24T01:59:40;11.00;99.90
8664;DHT22;4369;47.842;13.096;2023-03-24T02:02:08;10.90;99.90
8664;DHT22;4369;47.842;13.096;2023-03-24T02:04:42;10.90;99.90
8664;DHT22;4369;47.842;13.096;2023-03-24T02:07:13;10.90;99.90
8664;DHT22;4369;47.842;13.096;2023-03-24T02:09:41;10.90;99.90
8664;DHT22;4369;47.842;13.096;2023-03-24T02:12:08;10.90;99.90
8664;DHT22;4369;47.842;13.096;2023-03-24T02:14:35;10.90;99.90
8664;DHT22;4369;47.842;13.096;2023-03-24T02:17:21;10.90;99.90
8664;DHT22;4369;47.842;13.096;2023-03-24T02:29:28;10.70;99.90
8664;DHT22;4369;47.842;13.096;2023-03-24T02:38:16;10.80;99.90
8664;DHT22;4369;47.842;13.096;2023-03-24T02:40:48;10.70;99.90
8664;DHT22;4369;47.842;13.096;2023-03-24T02:43:28;10.70;99.90
8664;DHT22;4369;47.842;13.096;2023-03-24T02:46:07;10.70;99.90
8664;DHT22;4369;47.842;13.096;2023-03-24T02:48:46;10.60;99.90
8664;DHT22;4369;47.842;13.096;2023-03-24T02:51:20;10.60;99.90
8664;DHT22;4369;47.842;13.096;2023-03-24T02:53:54;10.60;99.90
8664;DHT22;4369;47.842;13.096;2023-03-24T02:56:31;10.60;99.90
8664;DHT22;4369;47.842;13.096;2023-03-24T02:59:02;10.60;99.90
8664;DHT22;4369;47.842;13.096;2023-03-24T03:01:33;10.60;99.90
8664;DHT22;4369;47.842;13.096;2023-03-24T03:04:05;10.50;99.90
8664;DHT22;4369;47.842;13.096;2023-03-24T03:06:35;10.50;99.90
8664;DHT22;4369;47.842;13.096;2023-03-24T03:09:07;10.50;99.90
8664;DHT22;4369;47.842;13.096;2023-03-24T03:11:38;10.50;99.90
8664;DHT22;4369;47.842;13.096;2023-03-24T03:14:09;10.50;99.90
8664;DHT22;4369;47.842;13.096;2023-03-24T03:16:40;10.50;99.90
8664;DHT22;4369;47.842;13.096;2023-03-24T03:19:16;10.50;99.90
8664;DHT22;4369;47.842;13.096;2023-03-24T03:21:45;10.40;99.90
8664;DHT22;4369;47.842;13.096;2023-03-24T03:24:15;10.50;99.90
8664;DHT22;4369;47.842;13.096;2023-03-24T03:26:47;10.50;99.90
8664;DHT22;4369;47.842;13.096;2023-03-24T03:29:18;10.50;99.90
8664;DHT22;4369;47.842;13.096;2023-03-24T03:31:50;10.50;99.90
8664;DHT22;4369;47.842;13.096;2023-03-24T03:34:24;10.50;99.90
8664;DHT22;4369;47.842;13.096;2023-03-24T03:36:56;10.50;99.90
8664;DHT22;4369;47.842;13.096;2023-03-24T03:39:28;10.50;99.90
8664;DHT22;4369;47.842;13.096;2023-03-24T03:41:57;10.40;99.90
8664;DHT22;4369;47.842;13.096;2023-03-24T03:44:24;10.40;99.90
8664;DHT22;4369;47.842;13.096;2023-03-24T03:46:51;10.30;99.90
8664;DHT22;4369;47.842;13.096;2023-03-24T03:49:19;10.40;99.90
8664;DHT22;4369;47.842;13.096;2023-03-24T03:51:46;10.40;99.90
8664;DHT22;4369;47.842;13.096;2023-03-24T03:54:13;10.40;99.90
8664;DHT22;4369;47.842;13.096;2023-03-24T03:56:42;10.40;99.90
8664;DHT22;4369;47.842;13.096;2023-03-24T03:59:22;10.30;99.90
8664;DHT22;4369;47.842;13.096;2023-03-24T04:01:50;10.30;99.90
8664;DHT22;4369;47.842;13.096;2023-03-24T04:04:33;10.40;99.90
8664;DHT22;4369;47.842;13.096;2023-03-24T04:07:13;10.40;99.90
8664;DHT22;4369;47.842;13.096;2023-03-24T04:09:48;10.50;99.90
8664;DHT22;4369;47.842;13.096;2023-03-24T04:12:44;10.50;99.90
8664;DHT22;4369;47.842;13.096;2023-03-24T04:15:31;10.50;99.90
8664;DHT22;4369;47.842;13.096;2023-03-24T04:18:09;10.50;99.90
8664;DHT22;4369;47.842;13.096;2023-03-24T04:20:44;10.50;99.90
8664;DHT22;4369;47.842;13.096;2023-03-24T04:23:23;10.50;99.90
8664;DHT22;4369;47.842;13.096;2023-03-24T04:25:58;10.50;99.90
8664;DHT22;4369;47.842;13.096;2023-03-24T04:28:34;10.60;99.90
8664;DHT22;4369;47.842;13.096;2023-03-24T04:31:11;10.60;99.90
8664;DHT22;4369;47.842;13.096;2023-03-24T04:33:46;10.60;99.90
8664;DHT22;4369;47.842;13.096;2023-03-24T04:36:19;10.60;99.90
8664;DHT22;4369;47.842;13.096;2023-03-24T04:38:49;10.60;99.90
8664;DHT22;4369;47.842;13.096;2023-03-24T04:41:20;10.50;99.90
8664;DHT22;4369;47.842;13.096;2023-03-24T04:43:51;10.50;99.90
8664;DHT22;4369;47.842;13.096;2023-03-24T04:46:21;10.50;99.90
8664;DHT22;4369;47.842;13.096;2023-03-24T04:48:49;10.50;99.90
8664;DHT22;4369;47.842;13.096;2023-03-24T04:51:17;10.50;99.90
8664;DHT22;4369;47.842;13.096;2023-03-24T04:53:45;10.50;99.90
8664;DHT22;4369;47.842;13.096;2023-03-24T04:56:26;10.50;99.90
8664;DHT22;4369;47.842;13.096;2023-03-24T04:58:54;10.60;99.90
8664;DHT22;4369;47.842;13.096;2023-03-24T05:01:24;10.60;99.90
8664;DHT22;4369;47.842;13.096;2023-03-24T05:03:55;10.60;99.90
8664;DHT22;4369;47.842;13.096;2023-03-24T05:06:22;10.60;99.90
8664;DHT22;4369;47.842;13.096;2023-03-24T05:08:50;10.70;99.90
8664;DHT22;4369;47.842;13.096;2023-03-24T05:11:18;10.70;99.90
8664;DHT22;4369;47.842;13.096;2023-03-24T05:13:45;10.60;99.90
8664;DHT22;4369;47.842;13.096;2023-03-24T05:16:13;10.60;99.90
8664;DHT22;4369;47.842;13.096;2023-03-24T05:18:41;10.50;99.90
8664;DHT22;4369;47.842;13.096;2023-03-24T05:21:08;10.50;99.90
8664;DHT22;4369;47.842;13.096;2023-03-24T05:23:35;10.50;99.90
8664;DHT22;4369;47.842;13.096;2023-03-24T05:26:02;10.50;99.90
8664;DHT22;4369;47.842;13.096;2023-03-24T05:28:30;10.50;99.90
8664;DHT22;4369;47.842;13.096;2023-03-24T05:30:56;10.50;99.90
8664;DHT22;4369;47.842;13.096;2023-03-24T05:33:24;10.50;99.90
8664;DHT22;4369;47.842;13.096;2023-03-24T05:35:53;10.60;99.90
8664;DHT22;4369;47.842;13.096;2023-03-24T05:38:20;10.60;99.90
8664;DHT22;4369;47.842;13.096;2023-03-24T05:40:47;10.60;99.90
8664;DHT22;4369;47.842;13.096;2023-03-24T05:43:14;10.60;99.90
8664;DHT22;4369;47.842;13.096;2023-03-24T05:45:40;10.60;99.90
8664;DHT22;4369;47.842;13.096;2023-03-24T05:48:07;10.60;99.90
8664;DHT22;4369;47.842;13.096;2023-03-24T05:50:34;10.80;99.90
8664;DHT22;4369;47.842;13.096;2023-03-24T05:53:02;10.80;99.90
8664;DHT22;4369;47.842;13.096;2023-03-24T05:55:29;10.80;99.90
8664;DHT22;4369;47.842;13.096;2023-03-24T05:57:56;10.90;99.90
8664;DHT22;4369;47.842;13.096;2023-03-24T06:00:27;10.90;99.90
8664;DHT22;4369;47.842;13.096;2023-03-24T06:02:55;11.00;99.90
8664;DHT22;4369;47.842;13.096;2023-03-24T06:05:22;11.00;99.90
8664;DHT22;4369;47.842;13.096;2023-03-24T06:07:49;11.10;99.90
8664;DHT22;4369;47.842;13.096;2023-03-24T06:10:17;11.20;99.90
8664;DHT22;4369;47.842;13.096;2023-03-24T06:12:44;11.20;99.90
8664;DHT22;4369;47.842;13.096;2023-03-24T06:15:11;11.30;99.90
8664;DHT22;4369;47.842;13.096;2023-03-24T06:17:42;11.30;99.90
8664;DHT22;4369;47.842;13.096;2023-03-24T06:20:10;11.40;99.90
8664;DHT22;4369;47.842;13.096;2023-03-24T06:22:41;11.50;99.90
8664;DHT22;4369;47.842;13.096;2023-03-24T06:25:09;11.60;99.90
8664;DHT22;4369;47.842;13.096;2023-03-24T06:27:38;11.70;99.90
8664;DHT22;4369;47.842;13.096;2023-03-24T06:30:12;11.70;99.90
8664;DHT22;4369;47.842;13.096;2023-03-24T06:32:40;11.90;99.90
8664;DHT22;4369;47.842;13.096;2023-03-24T06:35:07;12.00;99.90
8664;DHT22;4369;47.842;13.096;2023-03-24T06:37:35;12.10;99.90
8664;DHT22;4369;47.842;13.096;2023-03-24T06:40:02;12.20;99.90
8664;DHT22;4369;47.842;13.096;2023-03-24T06:42:33;12.30;99.90
8664;DHT22;4369;47.842;13.096;2023-03-24T06:45:02;12.40;99.90
8664;DHT22;4369;47.842;13.096;2023-03-24T06:47:29;12.50;99.90
8664;DHT22;4369;47.842;13.096;2023-03-24T06:49:56;12.60;99.90
8664;DHT22;4369;47.842;13.096;2023-03-24T06:52:22;12.60;99.90
8664;DHT22;4369;47.842;13.096;2023-03-24T06:54:52;12.60;99.90
8664;DHT22;4369;47.842;13.096;2023-03-24T06:57:19;12.70;99.90
8664;DHT22;4369;47.842;13.096;2023-03-24T06:59:46;12.70;99.90
8664;DHT22;4369;47.842;13.096;2023-03-24T07:02:14;12.90;99.90
8664;DHT22;4369;47.842;13.096;2023-03-24T07:04:46;13.00;99.90
8664;DHT22;4369;47.842;13.096;2023-03-24T07:07:13;13.10;99.90
8664;DHT22;4369;47.842;13.096;2023-03-24T07:09:40;13.30;99.90
8664;DHT22;4369;47.842;13.096;2023-03-24T07:12:07;13.50;99.90
8664;DHT22;4369;47.842;13.096;2023-03-24T07:14:36;13.70;99.90
8664;DHT22;4369;47.842;13.096;2023-03-24T07:17:03;13.80;99.90
8664;DHT22;4369;47.842;13.096;2023-03-24T07:19:31;14.00;99.90
8664;DHT22;4369;47.842;13.096;2023-03-24T07:21:58;14.10;99.90
8664;DHT22;4369;47.842;13.096;2023-03-24T07:24:25;14.30;99.90
8664;DHT22;4369;47.842;13.096;2023-03-24T07:26:52;14.40;99.90
8664;DHT22;4369;47.842;13.096;2023-03-24T07:29:19;14.50;99.90
8664;DHT22;4369;47.842;13.096;2023-03-24T07:31:46;14.50;99.90
8664;DHT22;4369;47.842;13.096;2023-03-24T07:34:13;14.70;99.90
8664;DHT22;4369;47.842;13.096;2023-03-24T07:36:42;14.90;99.90
8664;DHT22;4369;47.842;13.096;2023-03-24T07:39:08;15.00;99.90
8664;DHT22;4369;47.842;13.096;2023-03-24T07:41:35;15.10;99.90
8664;DHT22;4369;47.842;13.096;2023-03-24T07:44:02;15.20;99.90
8664;DHT22;4369;47.842;13.096;2023-03-24T07:46:29;15.20;99.90
8664;DHT22;4369;47.842;13.096;2023-03-24T07:48:56;15.50;99.90
8664;DHT22;4369;47.842;13.096;2023-03-24T07:51:23;15.70;99.90
8664;DHT22;4369;47.842;13.096;2023-03-24T07:53:51;15.70;99.90
8664;DHT22;4369;47.842;13.096;2023-03-24T07:56:18;15.90;99.90
8664;DHT22;4369;47.842;13.096;2023-03-24T07:58:45;15.90;99.90
8664;DHT22;4369;47.842;13.096;2023-03-24T08:01:12;16.10;99.90
8664;DHT22;4369;47.842;13.096;2023-03-24T08:03:41;16.30;99.90
8664;DHT22;4369;47.842;13.096;2023-03-24T08:06:08;16.30;99.90
8664;DHT22;4369;47.842;13.096;2023-03-24T08:08:36;16.20;99.90
8664;DHT22;4369;47.842;13.096;2023-03-24T08:11:05;16.20;99.90
8664;DHT22;4369;47.842;13.096;2023-03-24T08:13:32;16.20;99.90
8664;DHT22;4369;47.842;13.096;2023-03-24T08:15:58;16.20;99.90
8664;DHT22;4369;47.842;13.096;2023-03-24T08:18:25;16.30;99.90
8664;DHT22;4369;47.842;13.096;2023-03-24T08:20:55;16.30;99.90
8664;DHT22;4369;47.842;13.096;2023-03-24T08:23:25;16.40;99.90
8664;DHT22;4369;47.842;13.096;2023-03-24T08:25:52;16.50;99.90
8664;DHT22;4369;47.842;13.096;2023-03-24T08:28:21;16.60;99.90
8664;DHT22;4369;47.842;13.096;2023-03-24T08:30:48;16.70;99.90
8664;DHT22;4369;47.842;13.096;2023-03-24T08:33:15;16.80;99.90
8664;DHT22;4369;47.842;13.096;2023-03-24T08:35:42;16.90;99.90
8664;DHT22;4369;47.842;13.096;2023-03-24T08:38:11;16.90;99.90
8664;DHT22;4369;47.842;13.096;2023-03-24T08:40:41;16.90;99.90
8664;DHT22;4369;47.842;13.096;2023-03-24T08:43:12;16.90;99.90
8664;DHT22;4369;47.842;13.096;2023-03-24T08:45:41;17.00;99.90
8664;DHT22;4369;47.842;13.096;2023-03-24T08:48:08;17.00;99.90
8664;DHT22;4369;47.842;13.096;2023-03-24T08:50:37;17.10;99.90
8664;DHT22;4369;47.842;13.096;2023-03-24T08:53:05;17.20;99.90
8664;DHT22;4369;47.842;13.096;2023-03-24T08:55:32;17.30;99.90
8664;DHT22;4369;47.842;13.096;2023-03-24T08:57:59;17.30;99.90
8664;DHT22;4369;47.842;13.096;2023-03-24T09:00:26;17.30;99.90
8664;DHT22;4369;47.842;13.096;2023-03-24T09:02:54;17.40;99.90
8664;DHT22;4369;47.842;13.096;2023-03-24T09:05:23;17.40;99.90
8664;DHT22;4369;47.842;13.096;2023-03-24T09:07:52;17.40;99.90
8664;DHT22;4369;47.842;13.096;2023-03-24T09:10:19;17.40;99.30
8664;DHT22;4369;47.842;13.096;2023-03-24T09:12:48;17.40;99.90
8664;DHT22;4369;47.842;13.096;2023-03-24T09:15:15;17.40;99.90
8664;DHT22;4369;47.842;13.096;2023-03-24T09:17:42;17.40;99.90
8664;DHT22;4369;47.842;13.096;2023-03-24T09:20:13;17.60;99.70
8664;DHT22;4369;47.842;13.096;2023-03-24T09:22:41;17.60;96.60
8664;DHT22;4369;47.842;13.096;2023-03-24T09:25:10;17.80;96.30
8664;DHT22;4369;47.842;13.096;2023-03-24T09:27:37;17.70;97.30
8664;DHT22;4369;47.842;13.096;2023-03-24T09:30:05;17.60;96.90
8664;DHT22;4369;47.842;13.096;2023-03-24T09:32:34;17.50;97.20
8664;DHT22;4369;47.842;13.096;2023-03-24T09:35:01;17.50;96.20
8664;DHT22;4369;47.842;13.096;2023-03-24T09:37:30;17.70;95.70
8664;DHT22;4369;47.842;13.096;2023-03-24T09:39:57;17.80;96.40
8664;DHT22;4369;47.842;13.096;2023-03-24T09:42:27;18.00;96.30
8664;DHT22;4369;47.842;13.096;2023-03-24T09:44:57;18.00;93.80
8664;DHT22;4369;47.842;13.096;2023-03-24T09:47:27;17.90;93.80
8664;DHT22;4369;47.842;13.096;2023-03-24T09:49:59;18.10;93.70
8664;DHT22;4369;47.842;13.096;2023-03-24T09:52:32;18.10;92.90
8664;DHT22;4369;47.842;13.096;2023-03-24T09:55:01;18.20;93.30
8664;DHT22;4369;47.842;13.096;2023-03-24T09:57:34;18.30;93.80
8664;DHT22;4369;47.842;13.096;2023-03-24T10:00:14;18.40;92.80
8664;DHT22;4369;47.842;13.096;2023-03-24T10:02:42;18.50;93.00
8664;DHT22;4369;47.842;13.096;2023-03-24T10:05:12;18.50;92.80
8664;DHT22;4369;47.842;13.096;2023-03-24T10:07:46;18.50;92.70
8664;DHT22;4369;47.842;13.096;2023-03-24T10:10:23;18.70;94.70
8664;DHT22;4369;47.842;13.096;2023-03-24T10:12:59;18.70;96.60
8664;DHT22;4369;47.842;13.096;2023-03-24T10:15:32;18.80;96.70
8664;DHT22;4369;47.842;13.096;2023-03-24T10:18:16;18.90;96.80
8664;DHT22;4369;47.842;13.096;2023-03-24T10:20:50;18.80;94.50
8664;DHT22;4369;47.842;13.096;2023-03-24T10:23:26;18.90;94.60
8664;DHT22;4369;47.842;13.096;2023-03-24T10:26:01;19.00;94.80
8664;DHT22;4369;47.842;13.096;2023-03-24T10:28:34;19.00;94.70
8664;DHT22;4369;47.842;13.096;2023-03-24T10:31:08;19.00;93.60
8664;DHT22;4369;47.842;13.096;2023-03-24T10:33:39;18.90;93.10
8664;DHT22;4369;47.842;13.096;2023-03-24T10:36:08;18.90;93.00
8664;DHT22;4369;47.842;13.096;2023-03-24T10:38:38;18.90;93.90
8664;DHT22;4369;47.842;13.096;2023-03-24T10:41:05;18.80;94.10
8664;DHT22;4369;47.842;13.096;2023-03-24T10:43:32;18.80;94.90
8664;DHT22;4369;47.842;13.096;2023-03-24T10:46:00;18.70;95.30
8664;DHT22;4369;47.842;13.096;2023-03-24T10:48:42;18.60;95.40
8664;DHT22;4369;47.842;13.096;2023-03-24T10:51:22;18.40;95.40
8664;DHT22;4369;47.842;13.096;2023-03-24T10:54:10;18.10;96.70
8664;DHT22;4369;47.842;13.096;2023-03-24T10:56:41;18.20;97.60
8664;DHT22;4369;47.842;13.096;2023-03-24T10:59:18;18.30;97.30
8664;DHT22;4369;47.842;13.096;2023-03-24T11:01:47;18.50;96.70
8664;DHT22;4369;47.842;13.096;2023-03-24T11:04:16;18.60;94.80
8664;DHT22;4369;47.842;13.096;2023-03-24T11:06:59;18.60;95.40
8664;DHT22;4369;47.842;13.096;2023-03-24T11:09:28;18.70;96.00
8664;DHT22;4369;47.842;13.096;2023-03-24T11:12:02;18.80;96.00
8664;DHT22;4369;47.842;13.096;2023-03-24T11:14:29;18.70;93.90
8664;DHT22;4369;47.842;13.096;2023-03-24T11:17:02;19.00;92.90
8664;DHT22;4369;47.842;13.096;2023-03-24T11:19:35;19.50;94.10
8664;DHT22;4369;47.842;13.096;2023-03-24T11:22:04;19.80;91.30
8664;DHT22;4369;47.842;13.096;2023-03-24T11:24:36;20.10;88.20
8664;DHT22;4369;47.842;13.096;2023-03-24T11:27:04;20.40;86.90
8664;DHT22;4369;47.842;13.096;2023-03-24T11:29:33;20.40;86.30
8664;DHT22;4369;47.842;13.096;2023-03-24T11:32:01;19.90;86.00
8664;DHT22;4369;47.842;13.096;2023-03-24T11:34:31;19.60;87.20
8664;DHT22;4369;47.842;13.096;2023-03-24T11:37:04;19.30;86.20
8664;DHT22;4369;47.842;13.096;2023-03-24T11:39:35;19.00;90.30
8664;DHT22;4369;47.842;13.096;2023-03-24T11:42:13;18.90;91.60
8664;DHT22;4369;47.842;13.096;2023-03-24T11:44:47;19.00;92.00
8664;DHT22;4369;47.842;13.096;2023-03-24T11:47:20;19.00;92.50
8664;DHT22;4369;47.842;13.096;2023-03-24T11:49:52;18.90;92.20
8664;DHT22;4369;47.842;13.096;2023-03-24T11:52:23;18.60;92.00
8664;DHT22;4369;47.842;13.096;2023-03-24T11:54:54;18.50;92.80
8664;DHT22;4369;47.842;13.096;2023-03-24T11:57:34;18.30;92.80
8664;DHT22;4369;47.842;13.096;2023-03-24T12:00:08;18.00;94.20
8664;DHT22;4369;47.842;13.096;2023-03-24T12:02:55;17.80;93.70
8664;DHT22;4369;47.842;13.096;2023-03-24T12:05:31;17.60;94.40
8664;DHT22;4369;47.842;13.096;2023-03-24T12:08:09;17.50;95.70
8664;DHT22;4369;47.842;13.096;2023-03-24T12:10:47;17.40;96.40
8664;DHT22;4369;47.842;13.096;2023-03-24T12:13:19;17.20;98.40
8664;DHT22;4369;47.842;13.096;2023-03-24T12:15:55;16.40;99.50
8664;DHT22;4369;47.842;13.096;2023-03-24T12:18:40;16.00;99.90
8664;DHT22;4369;47.842;13.096;2023-03-24T12:21:24;15.80;99.90
8664;DHT22;4369;47.842;13.096;2023-03-24T12:23:56;15.70;99.90
8664;DHT22;4369;47.842;13.096;2023-03-24T12:26:27;15.70;99.90
8664;DHT22;4369;47.842;13.096;2023-03-24T12:29:11;15.80;99.90
8664;DHT22;4369;47.842;13.096;2023-03-24T12:31:54;15.90;99.90
8664;DHT22;4369;47.842;13.096;2023-03-24T12:34:46;16.00;99.90
8664;DHT22;4369;47.842;13.096;2023-03-24T12:37:25;15.90;99.90
8664;DHT22;4369;47.842;13.096;2023-03-24T12:40:06;15.90;99.90
8664;DHT22;4369;47.842;13.096;2023-03-24T12:42:39;15.90;99.90
8664;DHT22;4369;47.842;13.096;2023-03-24T12:45:27;15.90;99.90
8664;DHT22;4369;47.842;13.096;2023-03-24T12:48:21;15.90;99.90
8664;DHT22;4369;47.842;13.096;2023-03-24T12:51:01;15.60;99.90
8664;DHT22;4369;47.842;13.096;2023-03-24T12:53:39;15.50;99.90
8664;DHT22;4369;47.842;13.096;2023-03-24T12:56:12;15.40;99.90
8664;DHT22;4369;47.842;13.096;2023-03-24T12:58:45;15.20;99.90
8664;DHT22;4369;47.842;13.096;2023-03-24T13:01:19;15.20;99.90
8664;DHT22;4369;47.842;13.096;2023-03-24T13:03:52;15.10;99.90
8664;DHT22;4369;47.842;13.096;2023-03-24T13:06:24;15.10;99.90
8664;DHT22;4369;47.842;13.096;2023-03-24T13:09:17;15.20;99.90
8664;DHT22;4369;47.842;13.096;2023-03-24T13:11:54;15.50;99.90
8664;DHT22;4369;47.842;13.096;2023-03-24T13:14:26;16.30;99.90
8664;DHT22;4369;47.842;13.096;2023-03-24T13:17:02;16.90;99.90
8664;DHT22;4369;47.842;13.096;2023-03-24T13:19:30;19.60;99.90
8664;DHT22;4369;47.842;13.096;2023-03-24T13:21:59;23.20;99.10
8664;DHT22;4369;47.842;13.096;2023-03-24T13:24:27;25.00;95.20
8664;DHT22;4369;47.842;13.096;2023-03-24T13:27:01;25.60;87.20
8664;DHT22;4369;47.842;13.096;2023-03-24T13:30:10;24.00;90.60
8664;DHT22;4369;47.842;13.096;2023-03-24T13:32:41;22.00;94.80
8664;DHT22;4369;47.842;13.096;2023-03-24T13:35:16;19.80;99.90
8664;DHT22;4369;47.842;13.096;2023-03-24T13:37:48;18.70;99.90
8664;DHT22;4369;47.842;13.096;2023-03-24T13:40:21;18.00;99.90
8664;DHT22;4369;47.842;13.096;2023-03-24T13:42:53;17.60;99.90
8664;DHT22;4369;47.842;13.096;2023-03-24T13:45:38;17.20;99.90
8664;DHT22;4369;47.842;13.096;2023-03-24T13:48:16;16.80;99.90
8664;DHT22;4369;47.842;13.096;2023-03-24T13:50:53;16.60;99.90
8664;DHT22;4369;47.842;13.096;2023-03-24T13:53:32;16.50;99.90
8664;DHT22;4369;47.842;13.096;2023-03-24T13:55:59;16.30;99.90
8664;DHT22;4369;47.842;13.096;2023-03-24T13:58:44;16.20;99.90
8664;DHT22;4369;47.842;13.096;2023-03-24T14:01:30;16.20;99.90
8664;DHT22;4369;47.842;13.096;2023-03-24T14:04:26;16.20;99.90
8664;DHT22;4369;47.842;13.096;2023-03-24T14:06:54;16.00;99.90
8664;DHT22;4369;47.842;13.096;2023-03-24T14:09:23;15.90;99.90
8664;DHT22;4369;47.842;13.096;2023-03-24T14:12:20;15.80;99.90
8664;DHT22;4369;47.842;13.096;2023-03-24T14:15:13;15.80;99.90
8664;DHT22;4369;47.842;13.096;2023-03-24T14:17:44;15.80;99.90
8664;DHT22;4369;47.842;13.096;2023-03-24T14:20:24;15.90;99.90
8664;DHT22;4369;47.842;13.096;2023-03-24T14:22:53;16.00;99.90
8664;DHT22;4369;47.842;13.096;2023-03-24T14:25:25;16.20;99.90
8664;DHT22;4369;47.842;13.096;2023-03-24T14:28:06;16.20;99.90
8664;DHT22;4369;47.842;13.096;2023-03-24T14:30:36;16.60;99.90
8664;DHT22;4369;47.842;13.096;2023-03-24T14:33:24;17.50;99.90
8664;DHT22;4369;47.842;13.096;2023-03-24T14:35:57;19.00;99.90
8664;DHT22;4369;47.842;13.096;2023-03-24T14:38:34;18.90;99.90
8664;DHT22;4369;47.842;13.096;2023-03-24T14:41:06;18.50;99.90
8664;DHT22;4369;47.842;13.096;2023-03-24T14:43:53;18.50;99.90
8664;DHT22;4369;47.842;13.096;2023-03-24T14:46:43;18.00;99.90
8664;DHT22;4369;47.842;13.096;2023-03-24T14:49:21;17.60;99.90
8664;DHT22;4369;47.842;13.096;2023-03-24T14:51:57;17.10;99.90
8664;DHT22;4369;47.842;13.096;2023-03-24T14:54:31;17.00;99.90
8664;DHT22;4369;47.842;13.096;2023-03-24T14:57:00;16.80;99.90
8664;DHT22;4369;47.842;13.096;2023-03-24T14:59:34;16.70;99.90
8664;DHT22;4369;47.842;13.096;2023-03-24T15:02:12;16.70;99.90
8664;DHT22;4369;47.842;13.096;2023-03-24T15:05:14;16.80;99.90
8664;DHT22;4369;47.842;13.096;2023-03-24T15:07:41;17.10;99.90
8664;DHT22;4369;47.842;13.096;2023-03-24T15:10:13;17.40;99.90
8664;DHT22;4369;47.842;13.096;2023-03-24T15:12:43;17.40;99.90
8664;DHT22;4369;47.842;13.096;2023-03-24T15:15:15;17.40;99.90
8664;DHT22;4369;47.842;13.096;2023-03-24T15:17:43;18.10;99.90
8664;DHT22;4369;47.842;13.096;2023-03-24T15:20:22;18.00;99.90
8664;DHT22;4369;47.842;13.096;2023-03-24T15:22:50;17.80;99.90
8664;DHT22;4369;47.842;13.096;2023-03-24T15:25:24;17.60;99.90
8664;DHT22;4369;47.842;13.096;2023-03-24T15:27:51;17.30;99.90
8664;DHT22;4369;47.842;13.096;2023-03-24T15:30:18;17.10;99.90
8664;DHT22;4369;47.842;13.096;2023-03-24T15:32:45;16.90;99.90
8664;DHT22;4369;47.842;13.096;2023-03-24T15:35:15;16.70;99.90
8664;DHT22;4369;47.842;13.096;2023-03-24T15:37:44;16.70;99.90
8664;DHT22;4369;47.842;13.096;2023-03-24T15:40:33;16.70;99.90
8664;DHT22;4369;47.842;13.096;2023-03-24T15:43:01;16.60;99.90
8664;DHT22;4369;47.842;13.096;2023-03-24T15:45:30;16.50;99.90
8664;DHT22;4369;47.842;13.096;2023-03-24T15:48:03;16.50;99.90
8664;DHT22;4369;47.842;13.096;2023-03-24T15:50:33;16.30;99.90
8664;DHT22;4369;47.842;13.096;2023-03-24T15:53:04;16.20;99.90
8664;DHT22;4369;47.842;13.096;2023-03-24T15:55:33;16.20;99.90
8664;DHT22;4369;47.842;13.096;2023-03-24T15:58:12;16.10;99.90
8664;DHT22;4369;47.842;13.096;2023-03-24T16:00:44;16.10;99.90
8664;DHT22;4369;47.842;13.096;2023-03-24T16:03:12;16.00;99.90
8664;DHT22;4369;47.842;13.096;2023-03-24T16:05:45;15.80;99.90
8664;DHT22;4369;47.842;13.096;2023-03-24T16:08:30;15.80;99.90
8664;DHT22;4369;47.842;13.096;2023-03-24T16:11:01;15.70;99.90
8664;DHT22;4369;47.842;13.096;2023-03-24T16:13:31;15.70;99.90
8664;DHT22;4369;47.842;13.096;2023-03-24T16:16:00;15.70;99.90
8664;DHT22;4369;47.842;13.096;2023-03-24T16:18:30;15.70;99.90
8664;DHT22;4369;47.842;13.096;2023-03-24T16:20:58;15.70;99.90
8664;DHT22;4369;47.842;13.096;2023-03-24T16:23:26;15.70;99.90
8664;DHT22;4369;47.842;13.096;2023-03-24T16:25:53;15.60;99.90
8664;DHT22;4369;47.842;13.096;2023-03-24T16:28:21;15.60;99.90